createdAt,value
2018-04-11T00:00:53.400Z,8.13
2018-04-11T00:03:21.676Z,9.87
2018-04-11T00:05:50.113Z,8.60
2018-04-11T00:08:19.232Z,7.87
2018-04-11T00:10:48.355Z,8.67
2018-04-11T00:13:16.741Z,8.30
2018-04-11T00:15:45.683Z,8.03
2018-04-11T00:18:14.783Z,7.93
2018-04-11T00:20:43.836Z,8.20
2018-04-11T00:23:12.848Z,8.23
2018-04-11T00:25:41.426Z,10.00
2018-04-11T00:28:09.703Z,7.83
2018-04-11T00:30:38.128Z,7.50
2018-04-11T00:33:07.179Z,7.80
2018-04-11T00:35:35.436Z,7.77
2018-04-11T00:38:03.731Z,8.10
2018-04-11T00:40:32.195Z,8.23
2018-04-11T00:43:02.035Z,7.27
2018-04-11T00:45:30.815Z,7.30
2018-04-11T00:47:59.103Z,8.53
2018-04-11T00:50:27.829Z,7.23
2018-04-11T00:53:14.634Z,8.63
2018-04-11T00:55:43.691Z,8.20
2018-04-11T00:58:12.922Z,8.30
2018-04-11T01:00:43.203Z,6.97
2018-04-11T01:03:11.471Z,8.57
2018-04-11T01:05:40.179Z,7.60
2018-04-11T01:08:09.146Z,8.47
2018-04-11T01:10:37.682Z,7.50
2018-04-11T01:13:06.289Z,8.43
2018-04-11T01:15:36.275Z,7.67
2018-04-11T01:18:05.226Z,8.07
2018-04-11T01:20:33.486Z,7.40
2018-04-11T01:23:01.766Z,7.60
2018-04-11T01:25:30.819Z,7.40
2018-04-11T01:27:59.094Z,7.57
2018-04-11T01:30:27.412Z,7.00
2018-04-11T01:32:55.922Z,8.00
2018-04-11T01:35:24.215Z,7.27
2018-04-11T01:37:52.519Z,6.60
2018-04-11T01:40:21.750Z,7.43
2018-04-11T01:42:50.776Z,7.60
2018-04-11T01:45:19.685Z,6.83
2018-04-11T01:47:47.974Z,7.30
2018-04-11T01:50:16.237Z,7.80
2018-04-11T01:52:44.610Z,7.17
2018-04-11T01:55:13.758Z,8.00
2018-04-11T01:57:42.799Z,6.80
2018-04-11T02:00:12.095Z,6.33
2018-04-11T02:02:40.376Z,6.83
2018-04-11T02:05:08.650Z,8.27
2018-04-11T02:07:37.680Z,7.37
2018-04-11T02:10:06.277Z,6.57
2018-04-11T02:12:35.138Z,8.97
2018-04-11T02:15:03.885Z,7.07
2018-04-11T02:17:32.166Z,7.60
2018-04-11T02:20:00.576Z,6.60
2018-04-11T02:22:30.927Z,7.37
2018-04-11T02:24:59.791Z,6.93
2018-04-11T02:27:28.731Z,7.50
2018-04-11T02:29:57.795Z,8.47
2018-04-11T02:32:26.689Z,7.00
2018-04-11T02:34:55.259Z,6.47
2018-04-11T02:37:24.384Z,8.30
2018-04-11T02:39:53.498Z,6.60
2018-04-11T02:42:22.644Z,6.30
2018-04-11T02:44:51.643Z,6.23
2018-04-11T02:47:19.920Z,6.97
2018-04-11T02:49:48.286Z,5.90
2018-04-11T02:52:16.566Z,6.30
2018-04-11T02:54:45.508Z,6.27
2018-04-11T02:57:14.039Z,6.10
2018-04-11T02:59:43.906Z,7.10
2018-04-11T03:02:13.032Z,6.63
2018-04-11T03:04:42.057Z,7.00
2018-04-11T03:07:10.321Z,5.93
2018-04-11T03:09:39.735Z,7.20
2018-04-11T03:12:08.019Z,8.20
2018-04-11T03:14:37.046Z,7.50
2018-04-11T03:17:05.327Z,6.77
2018-04-11T03:19:34.207Z,7.77
2018-04-11T03:22:02.519Z,6.40
2018-04-11T03:24:31.562Z,6.80
2018-04-11T03:26:59.837Z,6.50
2018-04-11T03:29:28.566Z,7.00
2018-04-11T03:31:56.916Z,8.13
2018-04-11T03:34:25.191Z,8.20
2018-04-11T03:36:53.787Z,6.93
2018-04-11T03:39:22.063Z,7.70
2018-04-11T03:41:51.250Z,6.70
2018-04-11T03:44:20.638Z,7.20
2018-04-11T03:46:50.388Z,8.53
2018-04-11T03:49:18.769Z,7.30
2018-04-11T03:51:47.136Z,7.03
2018-04-11T03:54:15.763Z,7.63
2018-04-11T03:56:45.814Z,7.50
2018-04-11T03:59:14.106Z,7.63
2018-04-11T04:01:42.537Z,8.50
2018-04-11T04:04:10.847Z,7.87
2018-04-11T04:06:39.946Z,7.40
2018-04-11T04:09:08.242Z,7.80
2018-04-11T04:11:36.530Z,8.80
2018-04-11T04:14:22.922Z,7.70
2018-04-11T04:17:09.053Z,6.70
2018-04-11T04:19:55.224Z,8.80
2018-04-11T04:22:23.483Z,7.83
2018-04-11T04:24:51.758Z,8.97
2018-04-11T04:27:20.139Z,7.97
2018-04-11T04:29:49.455Z,8.37
2018-04-11T04:32:17.743Z,7.80
2018-04-11T04:34:46.375Z,8.10
2018-04-11T04:37:14.943Z,9.63
2018-04-11T04:39:44.007Z,7.77
2018-04-11T04:42:12.783Z,8.40
2018-04-11T04:44:41.142Z,8.80
2018-04-11T04:47:09.474Z,9.10
2018-04-11T04:49:37.878Z,8.77
2018-04-11T04:52:06.932Z,8.73
2018-04-11T04:54:36.110Z,9.27
2018-04-11T04:57:05.015Z,9.50
2018-04-11T04:59:33.283Z,8.70
2018-04-11T05:02:01.750Z,9.00
2018-04-11T05:04:30.422Z,8.97
2018-04-11T05:06:58.701Z,9.83
2018-04-11T05:09:26.972Z,8.20
2018-04-11T05:11:55.281Z,9.40
2018-04-11T05:14:24.270Z,8.40
2018-04-11T05:16:52.552Z,10.23
2018-04-11T05:19:21.225Z,9.47
2018-04-11T05:21:50.350Z,9.10
2018-04-11T05:24:18.611Z,7.90
2018-04-11T05:26:46.891Z,8.60
2018-04-11T05:29:15.363Z,8.73
2018-04-11T05:31:43.902Z,8.93
2018-04-11T05:34:12.512Z,9.17
2018-04-11T05:36:41.635Z,8.17
2018-04-11T05:39:10.074Z,9.83
2018-04-11T05:41:39.114Z,10.50
2018-04-11T05:44:08.011Z,9.93
2018-04-11T05:46:38.022Z,9.87
2018-04-11T05:49:06.293Z,9.87
2018-04-11T05:51:34.774Z,8.83
2018-04-11T05:54:03.297Z,9.80
2018-04-11T05:56:31.884Z,9.23
2018-04-11T05:59:00.162Z,10.07
2018-04-11T06:01:29.061Z,10.27
2018-04-11T06:03:57.401Z,10.07
2018-04-11T06:06:27.628Z,10.47
2018-04-11T06:08:56.022Z,9.80
2018-04-11T06:11:24.316Z,12.87
2018-04-11T06:13:52.660Z,11.30
2018-04-11T06:16:20.932Z,10.57
2018-04-11T06:18:49.335Z,11.10
2018-04-11T06:21:17.607Z,10.90
2018-04-11T06:23:45.882Z,10.30
2018-04-11T06:26:14.191Z,11.00
2018-04-11T06:28:42.461Z,10.27
2018-04-11T06:31:13.675Z,10.77
2018-04-11T06:33:42.001Z,10.97
2018-04-11T06:36:10.274Z,11.37
2018-04-11T06:38:38.714Z,10.20
2018-04-11T06:41:06.991Z,10.37
2018-04-11T06:43:36.007Z,10.37
2018-04-11T06:46:06.022Z,10.90
2018-04-11T06:48:34.308Z,10.50
2018-04-11T06:51:03.113Z,11.10
2018-04-11T06:53:31.403Z,12.07
2018-04-11T06:56:00.559Z,9.80
2018-04-11T06:58:29.030Z,11.90
2018-04-11T07:00:57.856Z,11.30
2018-04-11T07:03:26.734Z,11.73
2018-04-11T07:05:55.095Z,11.90
2018-04-11T07:08:23.387Z,12.47
2018-04-11T07:10:53.097Z,12.10
2018-04-11T07:13:21.350Z,11.77
2018-04-11T07:15:50.354Z,12.27
2018-04-11T07:18:19.426Z,13.43
2018-04-11T07:20:48.983Z,13.63
2018-04-11T07:23:17.802Z,13.00
2018-04-11T07:25:47.081Z,11.63
2018-04-11T07:28:16.860Z,11.70
2018-04-11T07:30:45.186Z,11.57
2018-04-11T07:33:14.035Z,11.97
2018-04-11T07:35:42.408Z,12.17
2018-04-11T07:38:10.742Z,12.50
2018-04-11T07:40:39.794Z,12.63
2018-04-11T07:43:08.180Z,12.57
2018-04-11T07:45:36.497Z,12.33
2018-04-11T07:48:06.439Z,11.37
2018-04-11T07:50:35.479Z,13.30
2018-04-11T07:53:04.282Z,13.93
2018-04-11T07:55:34.747Z,11.53
2018-04-11T07:58:05.304Z,13.57
2018-04-11T08:00:34.101Z,12.57
2018-04-11T08:03:02.392Z,13.67
2018-04-11T08:05:31.006Z,13.90
2018-04-11T08:07:59.698Z,14.10
2018-04-11T08:10:28.726Z,13.63
2018-04-11T08:12:57.642Z,13.23
2018-04-11T08:15:26.768Z,13.27
2018-04-11T08:17:57.560Z,12.53
2018-04-11T08:20:25.781Z,12.77
2018-04-11T08:22:54.378Z,13.50
2018-04-11T08:25:23.271Z,12.07
2018-04-11T08:27:52.031Z,12.60
2018-04-11T08:30:20.447Z,12.60
2018-04-11T08:32:49.901Z,12.30
2018-04-11T08:35:18.920Z,13.60
2018-04-11T08:37:47.304Z,12.73
2018-04-11T08:40:15.617Z,12.90
2018-04-11T08:42:44.083Z,14.30
2018-04-11T08:45:13.141Z,11.87
2018-04-11T08:47:41.681Z,14.50
2018-04-11T08:50:09.987Z,12.63
2018-04-11T08:52:38.459Z,10.77
2018-04-11T08:55:06.759Z,12.57
2018-04-11T08:57:35.139Z,10.43
2018-04-11T09:00:03.414Z,11.43
2018-04-11T09:02:31.736Z,13.20
2018-04-11T09:05:00.791Z,13.47
2018-04-11T09:07:29.064Z,12.67
2018-04-11T09:09:59.015Z,11.40
2018-04-11T09:12:27.650Z,13.83
2018-04-11T09:14:55.912Z,13.67
2018-04-11T09:17:24.202Z,13.07
2018-04-11T09:19:52.714Z,13.17
2018-04-11T09:22:21.862Z,11.97
2018-04-11T09:24:51.275Z,12.43
2018-04-11T09:27:19.726Z,11.90
2018-04-11T09:29:48.000Z,13.07
2018-04-11T09:32:16.841Z,13.27
2018-04-11T09:34:45.362Z,12.17
2018-04-11T09:37:15.569Z,11.17
2018-04-11T09:39:44.259Z,13.53
2018-04-11T09:42:12.622Z,14.03
2018-04-11T09:44:42.956Z,14.20
2018-04-11T09:47:12.953Z,15.00
2018-04-11T09:49:41.963Z,12.47
2018-04-11T09:52:10.244Z,15.80
2018-04-11T09:54:38.512Z,15.83
2018-04-11T09:57:09.060Z,14.40
2018-04-11T09:59:38.087Z,16.10
2018-04-11T10:02:06.391Z,15.03
2018-04-11T10:04:35.572Z,14.73
2018-04-11T10:07:04.619Z,15.67
2018-04-11T10:09:32.881Z,17.70
2018-04-11T10:12:01.380Z,14.93
2018-04-11T10:14:30.604Z,16.57
2018-04-11T10:16:59.578Z,17.17
2018-04-11T10:19:28.024Z,15.90
2018-04-11T10:21:59.056Z,16.93
2018-04-11T10:24:28.479Z,16.77
2018-04-11T10:26:58.031Z,16.40
2018-04-11T10:29:26.843Z,15.07
2018-04-11T10:31:55.189Z,16.90
2018-04-11T10:34:23.462Z,15.83
2018-04-11T10:36:52.258Z,19.43
2018-04-11T10:39:20.743Z,18.80
2018-04-11T10:41:49.210Z,17.83
2018-04-11T10:44:17.621Z,18.73
2018-04-11T10:46:45.915Z,19.67
2018-04-11T10:49:14.198Z,18.50
2018-04-11T10:51:44.214Z,17.47
2018-04-11T10:54:13.576Z,17.87
2018-04-11T10:56:41.851Z,17.77
2018-04-11T10:59:10.131Z,18.23
2018-04-11T11:01:38.427Z,18.80
2018-04-11T11:04:07.273Z,18.87
2018-04-11T11:06:35.555Z,17.73
2018-04-11T11:09:03.838Z,17.30
2018-04-11T11:11:32.328Z,16.30
2018-04-11T11:14:00.603Z,17.67
2018-04-11T11:16:36.763Z,17.60
2018-04-11T11:19:05.019Z,16.83
2018-04-11T11:21:33.307Z,18.30
2018-04-11T11:24:01.600Z,17.77
2018-04-11T11:26:29.902Z,17.70
2018-04-11T11:28:58.464Z,18.80
2018-04-11T11:31:26.739Z,16.30
2018-04-11T11:33:55.007Z,18.37
2018-04-11T11:36:23.489Z,17.97
2018-04-11T11:38:52.377Z,18.00
2018-04-11T11:41:20.657Z,17.90
2018-04-11T11:43:48.969Z,17.33
2018-04-11T11:46:17.319Z,17.90
2018-04-11T11:48:45.822Z,16.37
2018-04-11T11:51:14.761Z,17.07
2018-04-11T11:53:44.544Z,16.97
2018-04-11T11:56:13.150Z,17.57
2018-04-11T11:58:42.407Z,17.30
2018-04-11T12:01:10.705Z,16.23
2018-04-11T12:03:39.019Z,16.93
2018-04-11T12:06:08.882Z,16.23
2018-04-11T12:08:37.238Z,15.10
2018-04-11T12:11:05.544Z,13.90
2018-04-11T12:13:33.858Z,15.30
2018-04-11T12:16:02.931Z,13.80
2018-04-11T12:18:31.552Z,15.27
2018-04-11T12:21:00.583Z,14.00
2018-04-11T12:23:29.327Z,15.80
2018-04-11T12:25:59.228Z,13.50
2018-04-11T12:28:27.759Z,13.50
2018-04-11T12:30:56.035Z,12.43
2018-04-11T12:33:24.855Z,12.00
2018-04-11T12:35:53.541Z,13.60
2018-04-11T12:38:21.899Z,13.90
2018-04-11T12:40:50.190Z,12.30
2018-04-11T12:43:19.206Z,12.87
2018-04-11T12:45:48.023Z,13.00
2018-04-11T12:48:17.764Z,11.90
2018-04-11T12:50:47.533Z,12.30
2018-04-11T12:53:17.421Z,12.50
2018-04-11T12:55:45.686Z,11.30
2018-04-11T12:58:14.824Z,11.23
2018-04-11T13:00:43.423Z,11.90
2018-04-11T13:03:12.470Z,11.40
2018-04-11T13:05:41.715Z,12.33
2018-04-11T13:08:10.298Z,11.67
2018-04-11T13:10:39.451Z,11.80
2018-04-11T13:13:08.489Z,12.87
2018-04-11T13:15:37.525Z,12.07
2018-04-11T13:18:06.016Z,11.87
2018-04-11T13:20:34.324Z,10.97
2018-04-11T13:23:02.599Z,10.43
2018-04-11T13:25:31.066Z,12.07
2018-04-11T13:27:59.355Z,10.93
2018-04-11T13:30:27.961Z,10.93
2018-04-11T13:32:56.238Z,10.83
2018-04-11T13:35:26.113Z,10.60
2018-04-11T13:37:55.111Z,10.17
2018-04-11T13:40:23.404Z,10.53
2018-04-11T13:42:51.687Z,9.57
2018-04-11T13:45:21.296Z,9.70
2018-04-11T13:47:50.309Z,9.57
2018-04-11T13:50:19.651Z,9.27
2018-04-11T13:52:48.363Z,10.53
2018-04-11T13:55:16.643Z,11.03
2018-04-11T13:57:45.127Z,9.77
2018-04-11T14:00:13.530Z,10.07
2018-04-11T14:02:42.415Z,10.33
2018-04-11T14:05:11.869Z,10.30
2018-04-11T14:07:41.115Z,10.47
2018-04-11T14:10:09.411Z,8.97
2018-04-11T14:12:37.813Z,10.47
2018-04-11T14:15:06.854Z,8.60
2018-04-11T14:17:35.130Z,8.70
2018-04-11T14:20:03.442Z,8.40
2018-04-11T14:22:32.255Z,9.63
2018-04-11T14:25:01.473Z,9.40
2018-04-11T14:27:29.768Z,9.60
2018-04-11T14:29:58.952Z,9.80
2018-04-11T14:32:27.569Z,8.57
2018-04-11T14:34:55.944Z,7.73
2018-04-11T14:37:24.408Z,8.63
2018-04-11T14:39:52.997Z,7.70
2018-04-11T14:42:21.587Z,7.50
2018-04-11T14:44:49.847Z,9.00
2018-04-11T14:47:18.122Z,9.93
2018-04-11T14:49:46.411Z,7.57
2018-04-11T14:52:15.509Z,9.60
2018-04-11T14:54:45.843Z,8.97
2018-04-11T14:57:14.606Z,7.37
2018-04-11T14:59:43.325Z,9.20
2018-04-11T15:02:11.629Z,8.87
2018-04-11T15:04:40.036Z,8.40
2018-04-11T15:07:09.862Z,7.40
2018-04-11T15:09:38.716Z,7.57
2018-04-11T15:12:11.769Z,8.40
2018-04-11T15:14:40.073Z,8.10
2018-04-11T15:17:08.357Z,7.13
2018-04-11T15:19:36.631Z,7.73
2018-04-11T15:22:04.990Z,9.03
2018-04-11T15:24:34.846Z,8.03
2018-04-11T15:27:03.143Z,7.90
2018-04-11T15:29:32.296Z,8.70
2018-04-11T15:32:00.648Z,8.07
2018-04-11T15:34:28.931Z,9.00
2018-04-11T15:36:57.441Z,6.40
2018-04-11T15:39:25.715Z,6.97
2018-04-11T15:41:53.990Z,7.00
2018-04-11T15:44:22.279Z,6.43
2018-04-11T15:46:51.343Z,6.83
2018-04-11T15:49:19.614Z,6.93
2018-04-11T15:51:48.012Z,7.33
2018-04-11T15:54:16.298Z,6.57
2018-04-11T15:56:44.567Z,6.20
2018-04-11T15:59:13.247Z,6.83
2018-04-11T16:01:41.530Z,6.90
2018-04-11T16:04:09.819Z,6.70
2018-04-11T16:06:38.119Z,6.77
2018-04-11T16:09:06.411Z,7.30
2018-04-11T16:11:35.250Z,6.60
2018-04-11T16:14:03.523Z,6.40
2018-04-11T16:16:31.826Z,6.90
2018-04-11T16:19:00.541Z,7.13
2018-04-11T16:21:30.761Z,6.20
2018-04-11T16:23:59.530Z,6.90
2018-04-11T16:26:28.198Z,6.30
2018-04-11T16:28:56.485Z,5.67
2018-04-11T16:31:24.786Z,6.20
2018-04-11T16:33:53.075Z,6.50
2018-04-11T16:36:22.950Z,6.53
2018-04-11T16:38:51.739Z,7.10
2018-04-11T16:41:20.470Z,7.40
2018-04-11T16:43:49.619Z,5.87
2018-04-11T16:46:18.307Z,6.60
2018-04-11T16:48:46.585Z,6.40
2018-04-11T16:51:14.887Z,6.23
2018-04-11T16:53:43.627Z,6.47
2018-04-11T16:56:11.914Z,6.27
2018-04-11T16:58:40.221Z,5.57
2018-04-11T17:01:09.282Z,8.03
2018-04-11T17:03:37.634Z,6.63
2018-04-11T17:06:05.967Z,6.87
2018-04-11T17:08:34.452Z,6.33
2018-04-11T17:11:02.735Z,6.80
2018-04-11T17:13:31.512Z,6.43
2018-04-11T17:16:00.102Z,6.63
2018-04-11T17:18:28.378Z,7.00
2018-04-11T17:21:14.543Z,6.43
2018-04-11T17:24:00.561Z,7.13
2018-04-11T17:26:46.755Z,7.33
2018-04-11T17:29:32.755Z,6.80
2018-04-11T17:32:01.124Z,5.97
2018-04-11T17:34:29.492Z,6.40
2018-04-11T17:36:57.783Z,7.43
2018-04-11T17:39:26.107Z,6.83
2018-04-11T17:41:54.920Z,7.17
2018-04-11T17:44:23.956Z,7.83
2018-04-11T17:46:52.542Z,7.40
2018-04-11T17:49:21.665Z,8.17
2018-04-11T17:51:50.051Z,8.20
2018-04-11T17:54:18.675Z,8.17
2018-04-11T17:56:47.204Z,7.60
2018-04-11T17:59:15.478Z,8.17
2018-04-11T18:01:43.799Z,7.67
2018-04-11T18:04:12.842Z,7.83
2018-04-11T18:06:41.247Z,8.27
2018-04-11T18:09:09.532Z,8.60
2018-04-11T18:11:38.637Z,8.53
2018-04-11T18:14:07.433Z,8.73
2018-04-11T18:16:36.469Z,8.40
2018-04-11T18:19:04.741Z,10.23
2018-04-11T18:21:33.444Z,9.77
2018-04-11T18:24:01.759Z,9.20
2018-04-11T18:26:30.452Z,8.87
2018-04-11T18:28:59.455Z,9.80
2018-04-11T18:31:27.819Z,9.50
2018-04-11T18:33:56.391Z,9.17
2018-04-11T18:36:25.186Z,7.90
2018-04-11T18:38:54.135Z,10.00
2018-04-11T18:41:23.091Z,10.27
2018-04-11T18:43:51.369Z,10.00
2018-04-11T18:46:20.731Z,9.30
2018-04-11T18:48:49.092Z,11.27
2018-04-11T18:51:17.373Z,8.80
2018-04-11T18:53:45.679Z,9.40
2018-04-11T18:56:14.029Z,9.33
2018-04-11T18:58:42.310Z,7.87
2018-04-11T19:01:10.605Z,8.53
2018-04-11T19:03:38.891Z,9.33
2018-04-11T19:06:07.465Z,9.83
2018-04-11T19:08:35.767Z,10.10
2018-04-11T19:11:05.551Z,8.50
2018-04-11T19:13:34.041Z,8.80
2018-04-11T19:16:02.341Z,8.00
2018-04-11T19:18:31.375Z,8.57
2018-04-11T19:20:59.709Z,9.07
2018-04-11T19:23:28.489Z,6.90
2018-04-11T19:25:57.305Z,8.63
2018-04-11T19:28:25.591Z,8.37
2018-04-11T19:30:55.179Z,9.73
2018-04-11T19:33:23.458Z,8.13
2018-04-11T19:35:51.943Z,8.30
2018-04-11T19:38:20.293Z,7.70
2018-04-11T19:40:48.575Z,8.37
2018-04-11T19:43:16.854Z,8.20
2018-04-11T19:45:45.162Z,7.57
2018-04-11T19:48:13.453Z,9.20
2018-04-11T19:50:42.536Z,8.40
2018-04-11T19:53:10.866Z,9.20
2018-04-11T19:55:39.191Z,8.00
2018-04-11T19:58:07.481Z,8.63
2018-04-11T20:00:38.214Z,8.93
2018-04-11T20:03:06.513Z,9.53
2018-04-11T20:05:35.143Z,8.40
2018-04-11T20:08:03.417Z,8.17
2018-04-11T20:10:32.612Z,9.27
2018-04-11T20:13:00.937Z,8.33
2018-04-11T20:15:29.968Z,8.93
2018-04-11T20:17:58.241Z,9.10
2018-04-11T20:20:26.530Z,8.87
2018-04-11T20:22:54.851Z,8.37
2018-04-11T20:25:23.299Z,8.40
2018-04-11T20:27:52.743Z,7.87
2018-04-11T20:30:21.027Z,7.73
2018-04-11T20:32:50.694Z,8.13
2018-04-11T20:35:18.975Z,7.90
2018-04-11T20:37:47.262Z,7.40
2018-04-11T20:40:15.522Z,7.53
2018-04-11T20:42:43.799Z,7.90
2018-04-11T20:45:12.196Z,6.13
2018-04-11T20:47:40.458Z,7.50
2018-04-11T20:50:08.730Z,6.63
2018-04-11T20:52:37.123Z,7.00
2018-04-11T20:55:05.385Z,7.27
2018-04-11T20:57:33.656Z,6.90
2018-04-11T21:00:01.973Z,7.43
2018-04-11T21:02:30.653Z,7.30
2018-04-11T21:04:59.616Z,7.20
2018-04-11T21:07:27.890Z,6.33
2018-04-11T21:09:56.170Z,8.10
2018-04-11T21:12:24.888Z,7.20
2018-04-11T21:14:53.152Z,7.23
2018-04-11T21:17:21.415Z,7.13
2018-04-11T21:19:50.215Z,6.80
2018-04-11T21:22:18.537Z,7.00
2018-04-11T21:24:47.609Z,7.00
2018-04-11T21:27:15.900Z,8.63
2018-04-11T21:29:44.713Z,7.30
2018-04-11T21:32:12.991Z,6.70
2018-04-11T21:34:43.583Z,7.90
2018-04-11T21:37:12.201Z,7.40
2018-04-11T21:39:41.243Z,6.90
2018-04-11T21:42:09.513Z,6.73
2018-04-11T21:44:38.002Z,6.90
2018-04-11T21:47:06.294Z,6.53
2018-04-11T21:49:34.601Z,6.73
2018-04-11T21:52:03.592Z,7.10
2018-04-11T21:54:31.955Z,6.90
2018-04-11T21:57:00.239Z,7.60
2018-04-11T21:59:28.542Z,7.37
2018-04-11T22:01:57.595Z,6.53
2018-04-11T22:04:26.390Z,7.50
2018-04-11T22:06:54.702Z,7.77
2018-04-11T22:09:23.865Z,7.33
2018-04-11T22:11:52.352Z,6.70
2018-04-11T22:14:20.640Z,7.60
2018-04-11T22:16:48.930Z,8.07
2018-04-11T22:19:17.597Z,8.23
2018-04-11T22:21:45.862Z,8.13
2018-04-11T22:24:14.151Z,7.67
2018-04-11T22:26:42.726Z,8.03
2018-04-11T22:29:11.012Z,9.73
2018-04-11T22:31:39.273Z,8.50
2018-04-11T22:34:07.759Z,8.80
2018-04-11T22:36:36.042Z,8.57
2018-04-11T22:39:04.335Z,8.40
2018-04-11T22:41:32.628Z,7.63
2018-04-11T22:44:00.905Z,7.83
2018-04-11T22:46:29.900Z,7.80
2018-04-11T22:48:58.361Z,7.60
2018-04-11T22:51:27.249Z,7.10
2018-04-11T22:53:56.276Z,7.17
2018-04-11T22:56:24.599Z,8.10
2018-04-11T22:58:52.861Z,6.83
2018-04-11T23:01:21.127Z,7.60
2018-04-11T23:03:50.170Z,6.97
2018-04-11T23:06:18.488Z,8.10
2018-04-11T23:08:47.679Z,6.63
2018-04-11T23:11:15.934Z,6.97
2018-04-11T23:13:44.492Z,7.47
2018-04-11T23:16:12.753Z,8.40
2018-04-11T23:18:41.020Z,7.63
2018-04-11T23:21:10.151Z,9.17
2018-04-11T23:23:38.846Z,9.37
2018-04-11T23:26:08.278Z,8.70
2018-04-11T23:28:36.622Z,7.60
2018-04-11T23:31:05.102Z,9.07
2018-04-11T23:33:33.370Z,9.13
2018-04-11T23:36:02.721Z,8.80
2018-04-11T23:38:31.023Z,8.03
2018-04-11T23:41:00.491Z,8.87
2018-04-11T23:43:28.767Z,8.20
2018-04-11T23:45:57.232Z,10.20
2018-04-11T23:48:25.501Z,9.23
2018-04-11T23:50:53.978Z,8.73
2018-04-11T23:53:23.756Z,8.77
2018-04-11T23:55:52.915Z,9.00
2018-04-11T23:58:21.277Z,9.10
